Augusta, Kentucky
Current Conditions -  °F | °C
As of 7:55 AM on Tuesday 21 Oct 2014 (Local Time) from KFGX Reporting Station
Haze Haze  
Wind Chill:   Ceiling: 1500
Heat Index:   Visibility: 5mi
Dew Point:   Wind: 7mph
Humidity: 97%   Direction: 290°WNW
Pressure: 29.97"   Gusts: NA
Location:  38.77°N, 84.01°W
Report Text: KFGX 211155Z AUTO 29006KT 5SM BR BKN015 OVC060 09/09 A2997 RMK AO2 T00910087 10101 20089
Loading
Personal Weather Stations






























Interactive Weather Map
Tropical Storm Tracking
New forecast layout! Learn more

10-Day Weather Forecast

Advertisements
Track Severe Weather on mobile